Time;durP1;ratioP1;P1;durP2;ratioP2;P2;SDS_P1;SDS_P2;PMS_P1;PMS_P2;Temp;Humidity;BMP_temperature;BMP_pressure;BME280_temperature;BME280_humidity;BME280_pressure;Samples;Min_cycle;Max_cycle;Signal;HPM_P1;HPM_P2
2021/09/15 00:01:18;;;;;;;10.50;8.80;;;;;;;19.41;52.23;100673.86;117375;1185;21851;-55
2021/09/15 00:03:46;;;;;;;10.50;8.60;;;;;;;19.38;52.23;100675.95;117361;1183;21895;-55
2021/09/15 00:06:15;;;;;;;11.40;8.10;;;;;;;19.38;52.28;100678.77;117301;1185;23543;-55
2021/09/15 00:08:56;;;;;;;10.70;8.00;;;;;;;19.51;52.05;100675.55;117334;1183;23557;-55
2021/09/15 00:11:44;;;;;;;10.70;8.40;;;;;;;19.48;51.99;100674.05;117300;1185;21852;-55
2021/09/15 00:14:13;;;;;;;12.20;8.40;;;;;;;19.36;52.18;100676.73;117353;1185;23560;-54
2021/09/15 00:16:43;;;;;;;11.00;8.00;;;;;;;19.34;52.09;100676.45;117272;1186;23560;-55
2021/09/15 00:19:12;;;;;;;9.60;7.70;;;;;;;19.31;52.12;100676.04;117401;1184;23528;-55
2021/09/15 00:21:42;;;;;;;10.10;7.80;;;;;;;19.28;52.13;100675.98;117364;1185;23891;-55
2021/09/15 00:24:30;;;;;;;9.30;7.70;;;;;;;19.27;52.15;100672.70;117363;1184;21856;-55
2021/09/15 00:26:59;;;;;;;11.50;8.70;;;;;;;19.24;52.10;100676.35;117299;1184;23641;-55
2021/09/15 00:29:27;;;;;;;10.50;7.90;;;;;;;19.22;52.13;100672.72;117385;1185;23556;-55
2021/09/15 00:31:56;;;;;;;10.30;8.30;;;;;;;19.18;52.25;100673.09;117302;1186;23549;-55
2021/09/15 00:34:29;;;;;;;11.10;8.30;;;;;;;19.14;52.22;100676.97;117296;1188;21908;-55
2021/09/15 00:36:57;;;;;;;9.90;8.00;;;;;;;19.12;52.21;100675.44;117347;1185;21883;-55
2021/09/15 00:39:26;;;;;;;10.70;7.90;;;;;;;19.09;52.20;100674.33;117361;1185;21963;-55
2021/09/15 00:41:55;;;;;;;14.30;8.40;;;;;;;19.07;52.19;100668.74;117369;1182;23563;-55
2021/09/15 00:44:24;;;;;;;9.60;7.90;;;;;;;19.05;52.15;100669.20;117332;1185;23570;-55
2021/09/15 00:46:52;;;;;;;9.80;7.70;;;;;;;19.00;52.34;100667.76;117413;1185;24244;-55
2021/09/15 00:49:22;;;;;;;12.90;8.90;;;;;;;18.96;52.27;100668.51;117323;1185;23634;-55
2021/09/15 00:51:52;;;;;;;13.20;8.40;;;;;;;18.90;52.36;100672.11;117357;1180;22107;-55
2021/09/15 00:54:20;;;;;;;13.80;9.10;;;;;;;18.87;52.28;100672.56;117389;1188;21910;-55
2021/09/15 00:56:48;;;;;;;10.20;8.30;;;;;;;18.85;52.26;100677.29;117297;1184;24188;-55
2021/09/15 00:59:18;;;;;;;12.70;9.00;;;;;;;18.80;52.17;100681.23;117410;1185;22917;-55
2021/09/15 01:01:46;;;;;;;10.60;8.00;;;;;;;18.70;52.29;100680.38;117387;1185;22458;-55
2021/09/15 01:04:15;;;;;;;13.40;8.70;;;;;;;18.64;52.43;100678.16;117316;1185;21854;-56
2021/09/15 01:06:43;;;;;;;12.20;8.80;;;;;;;18.59;52.42;100681.71;117299;1185;21845;-55
2021/09/15 01:09:11;;;;;;;11.40;8.90;;;;;;;18.55;52.37;100682.42;117373;1188;21852;-55
2021/09/15 01:11:51;;;;;;;11.70;8.70;;;;;;;18.51;52.50;100681.35;117367;1184;23567;-55
2021/09/15 01:14:20;;;;;;;10.00;7.70;;;;;;;18.46;52.39;100684.02;117426;1182;23608;-55
2021/09/15 01:16:48;;;;;;;13.70;8.40;;;;;;;18.42;52.53;100685.27;117105;1183;23538;-55
2021/09/15 01:19:17;;;;;;;11.40;8.50;;;;;;;18.37;52.49;100686.66;117443;1185;23567;-55
2021/09/15 01:21:48;;;;;;;10.80;8.20;;;;;;;18.35;52.52;100686.75;117330;1182;23546;-55
2021/09/15 01:24:16;;;;;;;11.10;9.00;;;;;;;18.32;52.70;100689.91;117424;1182;23544;-55
2021/09/15 01:26:51;;;;;;;10.10;8.40;;;;;;;18.32;52.62;100689.39;117345;1184;23595;-55
2021/09/15 01:29:30;;;;;;;10.60;8.90;;;;;;;18.32;52.58;100688.67;117313;1183;23547;-55
2021/09/15 01:32:01;;;;;;;13.70;8.90;;;;;;;18.31;52.63;100686.40;117395;1182;21855;-55
2021/09/15 01:34:33;;;;;;;11.80;8.90;;;;;;;18.31;52.62;100684.64;117326;1185;22915;-55
2021/09/15 01:37:06;;;;;;;13.20;9.20;;;;;;;18.30;52.66;100687.15;117293;1185;23627;-55
2021/09/15 01:39:35;;;;;;;11.70;8.40;;;;;;;18.33;52.57;100687.02;117412;1185;23453;-55
2021/09/15 01:42:05;;;;;;;14.20;9.10;;;;;;;18.32;52.53;100685.13;117274;1185;23443;-62
2021/09/15 01:44:37;;;;;;;12.00;8.70;;;;;;;18.31;52.52;100687.13;117258;1185;23547;-55
2021/09/15 01:47:06;;;;;;;;;;;;;;;18.29;52.60;100691.81;117357;1182;24139;-63
2021/09/15 01:49:35;;;;;;;11.00;9.10;;;;;;;18.28;52.52;100690.79;117313;1185;21861;-63
2021/09/15 01:52:05;;;;;;;12.60;9.00;;;;;;;18.27;52.65;100693.83;117404;1185;21863;-62
2021/09/15 01:54:33;;;;;;;13.50;8.60;;;;;;;18.26;52.59;100692.60;117326;1184;24165;-62
2021/09/15 01:57:02;;;;;;;11.30;9.30;;;;;;;18.27;52.59;100695.05;117418;1185;22323;-63
2021/09/15 01:59:33;;;;;;;11.90;9.00;;;;;;;18.27;52.67;100696.33;117379;1185;21845;-63
2021/09/15 02:02:01;;;;;;;12.10;9.20;;;;;;;18.26;52.68;100696.72;117338;1184;23441;-63
2021/09/15 02:04:29;;;;;;;14.30;9.80;;;;;;;18.24;52.69;100697.49;117315;1185;21845;-62
2021/09/15 02:06:58;;;;;;;15.90;10.20;;;;;;;18.22;52.65;100695.77;117342;1183;23557;-62
2021/09/15 02:09:26;;;;;;;11.10;9.30;;;;;;;18.21;52.64;100695.85;117336;1185;23544;-62
2021/09/15 02:11:55;;;;;;;14.00;9.40;;;;;;;18.26;52.59;100696.88;117313;1185;23545;-63
2021/09/15 02:14:24;;;;;;;13.00;10.00;;;;;;;18.34;52.54;100698.38;117305;1185;23563;-62
2021/09/15 02:17:12;;;;;;;13.70;9.60;;;;;;;18.22;52.66;100700.98;117323;1184;21854;-62
2021/09/15 02:19:40;;;;;;;11.90;9.50;;;;;;;18.16;52.74;100697.13;117310;1184;23447;-62
2021/09/15 02:22:11;;;;;;;13.30;10.20;;;;;;;18.15;52.76;100698.58;117333;1189;21856;-62
2021/09/15 02:24:39;;;;;;;12.60;10.20;;;;;;;18.17;52.76;100698.31;117309;1185;23580;-63
2021/09/15 02:27:08;;;;;;;13.40;10.00;;;;;;;18.17;52.72;100698.49;117301;1184;23466;-63
2021/09/15 02:29:36;;;;;;;14.40;9.50;;;;;;;18.16;52.68;100698.89;117349;1182;22794;-63
2021/09/15 02:32:05;;;;;;;12.70;9.60;;;;;;;18.14;52.66;100705.15;117323;1184;23560;-63
2021/09/15 02:34:34;;;;;;;13.00;10.10;;;;;;;18.13;52.79;100706.63;117343;1184;23641;-63
2021/09/15 02:37:22;;;;;;;15.80;10.20;;;;;;;18.12;52.84;100704.73;117383;1184;21855;-63
2021/09/15 02:39:52;;;;;;;12.20;9.90;;;;;;;18.10;52.76;100709.06;117353;1185;23560;-63
2021/09/15 02:42:20;;;;;;;16.30;10.70;;;;;;;18.07;52.77;100710.05;117451;1182;23556;-62
2021/09/15 02:44:49;;;;;;;14.50;10.70;;;;;;;18.05;52.81;100715.10;117332;1183;23718;-62
2021/09/15 02:47:17;;;;;;;13.10;10.70;;;;;;;18.03;52.77;100716.95;117376;1183;23561;-63
2021/09/15 02:49:46;;;;;;;16.30;10.70;;;;;;;18.05;52.79;100718.68;117346;1185;23556;-62
2021/09/15 02:52:23;;;;;;;15.60;11.00;;;;;;;18.05;52.81;100724.71;117308;1183;23567;-62
2021/09/15 02:54:51;;;;;;;13.80;11.00;;;;;;;18.03;52.81;100727.44;117376;1185;22619;-62
2021/09/15 02:57:19;;;;;;;13.50;10.50;;;;;;;18.02;52.77;100729.78;117306;1182;23573;-62
2021/09/15 03:00:08;;;;;;;15.20;10.80;;;;;;;18.02;52.77;100731.38;117238;1186;24174;-62
2021/09/15 03:02:36;;;;;;;14.70;10.60;;;;;;;17.97;52.90;100737.21;117472;1185;22039;-63
2021/09/15 03:05:05;;;;;;;17.30;11.00;;;;;;;18.00;52.81;100741.93;117297;1185;23563;-62
2021/09/15 03:07:33;;;;;;;22.20;11.30;;;;;;;18.00;52.90;100744.07;117364;1185;21853;-55
2021/09/15 03:10:16;;;;;;;16.10;11.40;;;;;;;17.98;52.88;100747.27;117328;1185;23497;-62
2021/09/15 03:12:44;;;;;;;16.90;11.40;;;;;;;18.00;52.90;100748.84;117310;1184;23441;-54
2021/09/15 03:15:17;;;;;;;19.60;12.00;;;;;;;18.00;52.89;100753.29;117378;1185;23441;-62
2021/09/15 03:17:46;;;;;;;17.80;12.30;;;;;;;17.99;52.93;100752.60;117316;1185;21856;-55
2021/09/15 03:20:14;;;;;;;15.60;11.30;;;;;;;17.97;52.91;100754.41;117339;1185;21868;-54
2021/09/15 03:22:42;;;;;;;15.70;12.10;;;;;;;18.00;52.96;100755.93;117326;1185;21973;-62
2021/09/15 03:25:11;;;;;;;16.60;11.90;;;;;;;18.01;52.89;100758.93;117259;1182;23531;-62
2021/09/15 03:27:41;;;;;;;19.20;12.60;;;;;;;18.01;52.94;100763.02;117319;1184;24018;-62
2021/09/15 03:30:10;;;;;;;30.90;11.50;;;;;;;18.00;53.06;100761.64;117343;1185;23566;-62
2021/09/15 03:32:38;;;;;;;21.30;11.50;;;;;;;17.96;53.12;100759.97;117445;1182;22935;-62
2021/09/15 03:35:07;;;;;;;19.00;11.80;;;;;;;17.95;53.17;100761.23;117336;1185;21860;-62
2021/09/15 03:37:35;;;;;;;18.30;10.60;;;;;;;17.97;53.04;100762.05;117402;1184;23628;-62
2021/09/15 03:40:04;;;;;;;16.50;11.00;;;;;;;17.96;53.04;100766.02;117330;1185;23462;-63
2021/09/15 03:42:33;;;;;;;27.30;12.80;;;;;;;17.94;53.05;100762.33;117421;1186;22337;-64
2021/09/15 03:45:04;;;;;;;14.50;12.00;;;;;;;17.94;52.98;100760.92;117372;1185;23554;-64
2021/09/15 03:47:32;;;;;;;18.70;12.60;;;;;;;17.92;53.04;100765.95;117342;1183;23469;-63
2021/09/15 03:50:00;;;;;;;17.20;12.20;;;;;;;17.91;53.07;100767.23;117318;1186;23560;-64
2021/09/15 03:52:29;;;;;;;22.00;12.10;;;;;;;17.91;53.07;100772.75;117399;1185;23547;-64
2021/09/15 03:54:58;;;;;;;20.80;10.50;;;;;;;17.96;52.98;100773.13;117365;1185;21863;-64
2021/09/15 03:57:26;;;;;;;16.40;11.70;;;;;;;18.03;52.85;100774.67;117368;1185;23469;-63
2021/09/15 03:59:55;;;;;;;17.20;12.10;;;;;;;18.03;52.84;100776.97;117511;1185;22312;-64
2021/09/15 04:02:23;;;;;;;21.00;11.40;;;;;;;17.99;52.90;100779.57;117276;1185;21858;-64
2021/09/15 04:04:51;;;;;;;21.00;11.80;;;;;;;17.87;53.18;100786.05;117330;1186;23566;-65
2021/09/15 04:07:40;;;;;;;23.50;11.90;;;;;;;17.83;53.38;100790.25;117375;1185;21850;-64
2021/09/15 04:10:09;;;;;;;17.00;11.90;;;;;;;17.85;53.37;100789.47;117408;1176;23522;-64
2021/09/15 04:12:40;;;;;;;16.90;12.50;;;;;;;17.88;53.42;100789.39;117374;1186;23542;-64
2021/09/15 04:15:09;;;;;;;17.10;11.90;;;;;;;17.91;53.38;100788.19;117340;1185;21845;-64
2021/09/15 04:17:38;;;;;;;17.10;11.60;;;;;;;17.94;53.42;100789.16;117988;1185;23120;-64
2021/09/15 04:20:07;;;;;;;19.80;12.00;;;;;;;17.97;53.40;100793.32;117416;1186;23540;-64
2021/09/15 04:22:39;;;;;;;17.20;11.70;;;;;;;18.05;53.32;100796.42;117393;1185;22914;-64
2021/09/15 04:31:19;;;;;;;19.40;12.40;;;;;;;18.21;53.42;100803.65;117477;1186;23557;-63
2021/09/15 04:34:07;;;;;;;20.00;12.70;;;;;;;18.29;53.43;100806.38;117325;1186;21862;-64
2021/09/15 04:36:55;;;;;;;20.50;12.30;;;;;;;18.37;53.53;100810.88;117334;1186;21843;-64
2021/09/15 04:39:24;;;;;;;22.40;15.30;;;;;;;18.43;53.54;100814.73;117413;1185;22314;-65
2021/09/15 04:41:53;;;;;;;24.90;12.30;;;;;;;18.51;53.55;100817.29;117518;1183;23543;-65
2021/09/15 04:44:21;;;;;;;24.70;13.50;;;;;;;18.58;53.60;100814.30;117465;1185;23818;-64
2021/09/15 04:46:49;;;;;;;24.80;12.70;;;;;;;18.68;53.53;100814.67;117405;1186;23550;-65
2021/09/15 04:49:18;;;;;;;17.30;13.10;;;;;;;18.77;53.52;100817.70;117407;1186;23560;-65
2021/09/15 04:51:46;;;;;;;18.60;13.00;;;;;;;18.86;53.59;100815.73;117245;1186;21867;-67
2021/09/15 04:54:14;;;;;;;18.80;12.30;;;;;;;18.89;53.75;100824.88;117338;1186;21889;-65
2021/09/15 04:56:44;;;;;;;17.30;11.60;;;;;;;19.01;53.66;100827.27;117383;1186;23592;-65
2021/09/15 04:59:13;;;;;;;19.10;12.40;;;;;;;19.10;53.68;100826.17;117348;1185;23634;-65
2021/09/15 05:01:41;;;;;;;17.50;11.80;;;;;;;19.17;53.73;100827.48;117238;1186;23549;-64
2021/09/15 05:04:10;;;;;;;15.50;11.80;;;;;;;19.27;53.66;100822.10;117307;1185;23568;-65
2021/09/15 05:06:38;;;;;;;18.00;11.50;;;;;;;19.38;53.69;100823.81;117328;1185;23558;-65
2021/09/15 05:09:06;;;;;;;19.20;11.90;;;;;;;19.49;53.80;100823.31;117422;1185;21852;-65
2021/09/15 05:11:47;;;;;;;16.70;12.50;;;;;;;19.60;53.79;100826.96;117299;1183;23545;-65
2021/09/15 05:14:30;;;;;;;15.00;10.60;;;;;;;19.73;53.79;100827.29;117339;1183;23548;-66
2021/09/15 05:16:58;;;;;;;17.40;11.40;;;;;;;19.88;53.79;100826.67;117344;1186;23557;-66
2021/09/15 05:19:27;;;;;;;16.20;11.50;;;;;;;20.02;53.78;100833.73;117411;1185;23545;-66
2021/09/15 05:21:58;;;;;;;;;;;;;;;20.15;53.83;100835.08;117433;1183;23528;-66
2021/09/15 05:24:27;;;;;;;14.90;10.70;;;;;;;20.32;53.88;100838.08;117377;1185;23547;-66
2021/09/15 05:26:56;;;;;;;18.60;10.90;;;;;;;20.46;53.95;100842.40;117476;1182;23608;-66
2021/09/15 05:29:24;;;;;;;15.90;10.60;;;;;;;20.66;54.01;100838.81;117249;1183;23570;-66
2021/09/15 05:31:52;;;;;;;14.60;10.70;;;;;;;20.86;54.04;100837.36;117244;1190;21984;-65
2021/09/15 05:34:21;;;;;;;13.00;9.90;;;;;;;21.06;53.97;100836.77;117447;1182;23560;-65
2021/09/15 05:36:49;;;;;;;15.50;9.30;;;;;;;21.24;53.90;100841.22;117328;1185;21859;-66
2021/09/15 05:39:18;;;;;;;12.50;9.20;;;;;;;21.40;53.92;100846.16;117336;1182;23820;-66
2021/09/15 05:41:46;;;;;;;14.30;9.40;;;;;;;21.50;53.81;100846.20;117385;1185;23443;-65
2021/09/15 05:44:14;;;;;;;14.80;9.70;;;;;;;21.56;53.80;100846.98;117360;1183;23548;-64
2021/09/15 05:46:43;;;;;;;14.50;9.60;;;;;;;21.61;53.85;100844.23;117361;1183;23545;-65
2021/09/15 05:49:12;;;;;;;17.50;9.00;;;;;;;21.68;53.73;100844.22;117339;1185;23569;-66
2021/09/15 05:51:40;;;;;;;20.70;9.70;;;;;;;21.73;53.72;100841.86;117359;1184;21857;-66
2021/09/15 05:54:09;;;;;;;26.20;9.00;;;;;;;21.80;53.78;100846.46;117417;1184;23570;-66
2021/09/15 05:56:38;;;;;;;14.50;8.60;;;;;;;21.90;53.78;100851.30;117423;1188;21852;-65
2021/09/15 05:59:07;;;;;;;29.80;8.90;;;;;;;22.05;53.87;100849.13;117345;1183;22834;-66
2021/09/15 06:01:36;;;;;;;16.10;9.30;;;;;;;22.21;53.85;100851.13;117322;1185;23579;-70
2021/09/15 06:04:05;;;;;;;11.00;8.20;;;;;;;22.40;53.91;100855.30;117344;1183;23542;-66
2021/09/15 06:06:33;;;;;;;12.90;8.70;;;;;;;22.63;54.12;100857.48;117401;1185;21958;-67
2021/09/15 06:09:02;;;;;;;13.70;8.50;;;;;;;22.87;54.26;100860.45;117359;1186;22619;-69
2021/09/15 06:11:30;;;;;;;13.70;8.20;;;;;;;23.12;54.06;100863.67;117345;1184;23442;-67
2021/09/15 06:13:59;;;;;;;12.50;8.10;;;;;;;23.39;54.07;100866.85;117410;1182;21918;-66
2021/09/15 06:16:27;;;;;;;10.60;7.30;;;;;;;23.65;54.13;100862.96;117229;1189;21867;-66
2021/09/15 06:19:14;;;;;;;14.00;7.80;;;;;;;23.96;54.28;100861.30;117316;1188;22493;-66
2021/09/15 06:22:02;;;;;;;12.50;7.30;;;;;;;24.26;54.44;100860.39;117314;1185;22984;-70
2021/09/15 06:24:31;;;;;;;12.40;7.70;;;;;;;24.57;54.32;100859.17;117252;1186;21848;-68
2021/09/15 06:26:59;;;;;;;9.90;7.90;;;;;;;24.85;54.26;100859.73;117381;1185;23579;-70
2021/09/15 06:29:27;;;;;;;10.30;8.00;;;;;;;25.12;54.17;100859.45;117351;1183;23465;-68
2021/09/15 06:31:57;;;;;;;16.00;7.60;;;;;;;25.45;54.06;100858.16;117377;1182;23534;-68
2021/09/15 06:34:25;;;;;;;9.50;6.90;;;;;;;25.73;53.90;100854.30;117324;1185;21845;-66
2021/09/15 06:37:03;;;;;;;9.10;7.50;;;;;;;25.90;54.05;100850.98;117293;1183;23548;-67
2021/09/15 06:39:32;;;;;;;10.10;8.00;;;;;;;26.16;54.13;100850.48;117331;1184;23548;-66
2021/09/15 06:42:00;;;;;;;10.80;7.30;;;;;;;26.45;54.07;100849.19;117338;1186;21848;-68
2021/09/15 06:44:28;;;;;;;10.20;6.50;;;;;;;26.74;54.22;100848.71;117299;1185;21845;-66
2021/09/15 06:46:57;;;;;;;10.00;6.80;;;;;;;27.03;54.13;100847.67;117263;1186;24151;-66
2021/09/15 06:49:25;;;;;;;11.40;6.60;;;;;;;27.27;54.10;100845.39;117356;1185;23547;-65
2021/09/15 06:51:56;;;;;;;11.80;6.80;;;;;;;27.45;54.18;100846.55;117329;1185;21979;-71
2021/09/15 06:54:24;;;;;;;10.50;6.90;;;;;;;27.62;53.87;100841.12;117317;1186;21915;-71
2021/09/15 06:56:53;;;;;;;10.40;6.80;;;;;;;27.76;53.73;100840.98;117374;1182;23679;-69
2021/09/15 06:59:21;;;;;;;9.60;6.70;;;;;;;27.88;53.86;100846.66;117298;1183;23443;-74
2021/09/15 07:01:59;;;;;;;10.30;6.60;;;;;;;28.00;54.03;100854.02;117346;1182;23545;-74
2021/09/15 07:04:27;;;;;;;9.10;6.30;;;;;;;28.12;53.94;100851.48;117376;1185;23545;-74
2021/09/15 07:06:56;;;;;;;8.80;5.60;;;;;;;28.28;53.95;100851.13;117314;1186;21899;-77
2021/09/15 07:09:24;;;;;;;9.20;5.70;;;;;;;28.42;53.86;100856.16;117312;1184;22667;-70
2021/09/15 07:12:00;;;;;;;11.40;6.20;;;;;;;28.55;53.88;100853.73;117300;1185;21991;-74
2021/09/15 07:14:29;;;;;;;8.50;5.80;;;;;;;28.66;53.87;100855.86;117326;1182;23557;-74
2021/09/15 07:17:06;;;;;;;8.40;6.20;;;;;;;28.77;53.87;100859.30;117320;1186;23566;-69
2021/09/15 07:19:35;;;;;;;8.10;5.30;;;;;;;28.88;53.71;100858.30;117299;1185;23556;-74
2021/09/15 07:22:23;;;;;;;8.80;6.30;;;;;;;28.99;53.78;100861.18;117335;1186;21867;-67
2021/09/15 07:24:52;;;;;;;8.80;5.60;;;;;;;29.11;53.59;100859.87;117356;1183;23569;-69
2021/09/15 07:27:20;;;;;;;10.30;7.10;;;;;;;29.18;53.57;100860.86;117399;1182;24165;-69
2021/09/15 07:29:49;;;;;;;9.80;5.80;;;;;;;29.25;53.72;100852.92;117423;1185;23548;-69
2021/09/15 07:32:27;;;;;;;10.50;6.70;;;;;;;29.32;53.68;100857.21;117366;1184;21863;-70
2021/09/15 07:34:55;;;;;;;15.70;6.70;;;;;;;29.45;53.78;100856.31;117435;1182;23547;-80
2021/09/15 07:37:23;;;;;;;8.80;5.40;;;;;;;29.60;53.76;100854.48;117384;1182;22916;-72
2021/09/15 07:39:53;;;;;;;9.60;5.90;;;;;;;29.77;53.53;100852.13;117382;1186;23557;-70
2021/09/15 07:42:21;;;;;;;9.30;6.00;;;;;;;29.98;53.64;100848.17;117362;1185;24169;-72
2021/09/15 07:44:50;;;;;;;8.70;5.60;;;;;;;30.16;53.58;100845.56;117409;1185;21873;-67
2021/09/15 07:47:19;;;;;;;8.90;5.30;;;;;;;30.34;53.50;100843.04;117374;1185;21900;-69
2021/09/15 07:49:47;;;;;;;8.80;5.40;;;;;;;30.58;53.72;100846.33;117384;1184;23535;-70
2021/09/15 07:52:16;;;;;;;8.50;4.80;;;;;;;30.91;53.82;100851.05;117392;1183;23545;-79
2021/09/15 07:54:44;;;;;;;9.20;5.60;;;;;;;31.19;53.61;100848.36;117362;1185;23464;-69
2021/09/15 07:57:13;;;;;;;7.60;5.30;;;;;;;31.34;53.42;100851.09;117313;1184;23570;-70
2021/09/15 07:59:43;;;;;;;10.00;6.20;;;;;;;31.46;53.24;100848.73;117371;1185;22558;-69
2021/09/15 08:02:12;;;;;;;8.30;5.60;;;;;;;31.56;53.28;100843.77;117394;1182;21858;-73
2021/09/15 08:04:40;;;;;;;9.30;5.10;;;;;;;31.70;53.42;100847.27;117280;1182;21865;-70
2021/09/15 08:07:08;;;;;;;8.00;5.50;;;;;;;31.82;53.31;100841.98;117400;1185;23563;-72
2021/09/15 08:09:37;;;;;;;8.20;5.20;;;;;;;31.95;53.27;100838.70;117282;1183;23567;-68
2021/09/15 08:12:05;;;;;;;9.70;5.10;;;;;;;32.09;53.24;100841.55;117361;1183;23649;-72
2021/09/15 08:14:34;;;;;;;8.60;5.40;;;;;;;32.19;53.16;100843.33;117220;1183;23545;-71
2021/09/15 08:17:03;;;;;;;8.00;5.30;;;;;;;32.30;53.21;100843.86;117348;1183;21855;-69
2021/09/15 08:19:33;;;;;;;7.60;4.60;;;;;;;32.47;53.27;100840.78;117400;1183;21864;-67
2021/09/15 08:22:01;;;;;;;8.80;4.90;;;;;;;32.67;53.18;100839.77;117257;1188;21856;-75
2021/09/15 08:24:29;;;;;;;8.50;4.70;;;;;;;32.86;53.24;100840.11;117366;1176;24222;-65
2021/09/15 08:26:57;;;;;;;6.80;4.50;;;;;;;33.05;53.06;100836.40;117357;1186;23569;-71
2021/09/15 08:29:25;;;;;;;9.10;4.70;;;;;;;33.15;53.11;100836.31;117342;1188;21854;-74
2021/09/15 08:31:54;;;;;;;9.90;4.60;;;;;;;33.24;53.08;100843.59;117307;1183;23547;-70
2021/09/15 08:34:22;;;;;;;8.70;5.00;;;;;;;33.40;53.25;100839.09;117316;1186;21851;-70
2021/09/15 08:36:51;;;;;;;31.60;6.90;;;;;;;33.57;53.09;100835.72;117334;1183;21973;-69
2021/09/15 08:39:21;;;;;;;8.70;4.30;;;;;;;33.80;52.95;100837.34;117374;1182;23007;-77
2021/09/15 08:41:51;;;;;;;7.00;4.00;;;;;;;34.02;53.02;100837.44;117336;1180;23684;-68
2021/09/15 08:44:24;;;;;;;7.80;4.50;;;;;;;34.20;52.94;100836.88;117212;1179;23560;-70
2021/09/15 08:46:55;;;;;;;11.70;5.20;;;;;;;34.36;53.01;100837.53;117326;1185;23547;-69
2021/09/15 08:49:24;;;;;;;8.40;4.50;;;;;;;34.50;53.02;100829.31;117402;1182;23276;-69
2021/09/15 08:51:52;;;;;;;8.50;3.80;;;;;;;34.63;52.86;100831.34;117356;1183;23445;-76
2021/09/15 08:54:21;;;;;;;9.80;4.90;;;;;;;34.74;52.87;100832.23;117301;1183;23550;-70
2021/09/15 08:56:50;;;;;;;6.70;4.10;;;;;;;34.79;53.00;100831.30;117380;1183;22928;-76
2021/09/15 08:59:19;;;;;;;9.60;4.70;;;;;;;34.89;52.91;100831.45;117474;1182;23544;-68
2021/09/15 09:01:48;;;;;;;17.40;9.00;;;;;;;35.05;52.75;100830.70;117387;1185;23803;-71
2021/09/15 09:04:16;;;;;;;34.30;10.90;;;;;;;35.21;52.76;100826.38;117366;1186;21864;-70
2021/09/15 09:06:47;;;;;;;15.00;6.90;;;;;;;35.37;52.46;100825.55;117374;1182;23564;-72
2021/09/15 09:09:16;;;;;;;8.60;4.90;;;;;;;35.52;52.72;100825.88;117342;1182;23468;-70
2021/09/15 09:11:46;;;;;;;8.50;4.00;;;;;;;35.72;52.86;100825.14;117371;1185;23570;-72
2021/09/15 09:14:14;;;;;;;6.80;3.80;;;;;;;35.86;52.97;100826.71;117355;1182;21926;-69
2021/09/15 09:16:47;;;;;;;4.30;3.30;;;;;;;35.98;52.70;100819.00;117438;1185;22209;-77
2021/09/15 09:19:35;;;;;;;5.30;3.60;;;;;;;36.12;52.66;100821.74;117328;1189;21851;-71
2021/09/15 09:22:07;;;;;;;6.10;3.50;;;;;;;36.28;52.68;100824.07;117243;1180;23544;-71
2021/09/15 09:24:35;;;;;;;5.60;3.30;;;;;;;36.47;52.47;100823.66;117371;1186;22655;-68
2021/09/15 09:27:04;;;;;;;8.00;3.20;;;;;;;36.59;52.31;100817.34;117189;1185;23468;-70
2021/09/15 09:29:36;;;;;;;6.80;3.60;;;;;;;36.53;51.91;100812.36;117272;1183;21885;-72
2021/09/15 09:32:08;;;;;;;9.10;3.30;;;;;;;36.47;51.89;100815.18;117343;1185;21845;-70
2021/09/15 09:34:44;;;;;;;7.30;3.40;;;;;;;36.52;52.18;100810.41;117337;1186;21857;-72
2021/09/15 09:37:21;;;;;;;5.80;3.90;;;;;;;36.61;52.24;100816.88;117477;1185;23476;-76
2021/09/15 09:39:51;;;;;;;4.60;3.10;;;;;;;36.76;52.11;100818.81;117384;1182;22989;-72
2021/09/15 09:42:22;;;;;;;6.50;3.70;;;;;;;36.89;52.17;100815.30;117411;1186;23466;-73
2021/09/15 09:44:51;;;;;;;6.20;3.40;;;;;;;36.99;52.01;100812.48;117381;1183;23569;-74
2021/09/15 09:47:21;;;;;;;5.40;3.20;;;;;;;37.08;51.97;100810.73;117390;1186;22326;-70
2021/09/15 09:50:17;;;;;;;5.50;3.10;;;;;;;37.16;51.75;100807.30;117328;1185;22145;-73
2021/09/15 09:53:00;;;;;;;6.70;3.20;;;;;;;37.28;51.74;100806.52;117299;1186;21873;-76
2021/09/15 09:55:33;;;;;;;4.60;3.00;;;;;;;37.39;51.59;100805.73;117423;1183;23471;-70
2021/09/15 09:58:03;;;;;;;4.50;3.10;;;;;;;37.47;51.55;100802.14;117286;1182;22087;-74
2021/09/15 10:00:32;;;;;;;13.40;6.40;;;;;;;37.55;51.45;100801.32;117349;1185;21857;-70
2021/09/15 10:03:02;;;;;;;7.20;3.80;;;;;;;37.61;51.29;100800.67;117338;1183;21856;-72
2021/09/15 10:05:30;;;;;;;7.50;3.90;;;;;;;37.56;51.00;100798.77;117412;1184;21867;-70
2021/09/15 10:07:59;;;;;;;4.40;3.30;;;;;;;37.45;50.98;100795.34;117343;1183;23570;-70
2021/09/15 10:10:27;;;;;;;4.60;3.20;;;;;;;37.37;51.00;100793.33;117376;1180;23442;-71
2021/09/15 10:12:56;;;;;;;6.10;3.40;;;;;;;37.38;51.17;100796.30;117360;1183;23547;-78
2021/09/15 10:15:24;;;;;;;5.80;3.50;;;;;;;37.49;51.22;100794.78;117469;1182;21898;-70
2021/09/15 10:17:55;;;;;;;7.00;3.50;;;;;;;37.61;51.27;100791.89;117354;1183;21924;-73
2021/09/15 10:20:28;;;;;;;4.30;3.40;;;;;;;37.60;51.00;100792.00;117253;1182;23472;-72
2021/09/15 10:22:56;;;;;;;4.10;3.20;;;;;;;37.48;50.73;100791.66;117292;1185;21860;-71
2021/09/15 10:25:54;;;;;;;4.50;3.60;;;;;;;37.31;50.67;100791.91;117357;1181;22645;-70
2021/09/15 10:28:27;;;;;;;7.10;3.50;;;;;;;37.08;50.46;100790.60;117024;1180;23449;-71
2021/09/15 10:30:55;;;;;;;6.20;3.70;;;;;;;36.86;50.36;100792.39;117383;1184;23547;-70
2021/09/15 10:33:35;;;;;;;4.20;3.60;;;;;;;36.75;50.41;100790.89;117370;1185;21877;-68
2021/09/15 10:36:13;;;;;;;4.30;3.00;;;;;;;36.70;50.41;100787.83;117324;1186;23571;-68
2021/09/15 10:38:58;;;;;;;4.40;3.40;;;;;;;36.54;50.27;100783.55;117303;1186;23550;-70
2021/09/15 10:41:39;;;;;;;3.90;3.00;;;;;;;36.33;50.02;100785.96;117338;1186;21858;-69
2021/09/15 10:44:08;;;;;;;7.00;3.40;;;;;;;36.05;50.16;100788.20;117286;1186;21863;-68
2021/09/15 10:46:37;;;;;;;4.30;3.20;;;;;;;35.75;50.02;100783.79;117277;1186;23550;-68
2021/09/15 10:49:23;;;;;;;6.40;3.20;;;;;;;35.48;50.12;100786.09;117284;1185;23599;-72
2021/09/15 10:52:06;;;;;;;7.30;3.50;;;;;;;35.28;50.12;100784.63;117307;1182;22810;-69
2021/09/15 10:54:52;;;;;;;6.30;3.80;;;;;;;35.11;50.07;100781.59;117314;1182;23548;-69
2021/09/15 10:57:35;;;;;;;10.50;3.50;;;;;;;34.98;50.21;100778.42;117325;1186;23445;-68
2021/09/15 11:00:15;;;;;;;8.80;3.40;;;;;;;34.86;49.94;100773.48;117365;1184;22618;-70
2021/09/15 11:02:44;;;;;;;;;;;;;;;34.75;50.09;100770.52;117390;1182;21837;-71
2021/09/15 11:05:27;;;;;;;4.90;3.40;;;;;;;34.82;50.42;100771.04;117374;1182;24153;-69
2021/09/15 11:07:58;;;;;;;12.40;3.20;;;;;;;35.01;50.33;100768.61;117328;1181;23576;-73
2021/09/15 11:10:46;;;;;;;6.60;3.50;;;;;;;35.23;50.29;100767.09;117230;1186;21865;-68
2021/09/15 11:13:35;;;;;;;5.60;3.20;;;;;;;35.38;50.37;100766.66;117242;1185;21858;-73
2021/09/15 11:16:29;;;;;;;7.00;3.20;;;;;;;35.41;50.34;100763.41;117361;1183;23560;-72
2021/09/15 11:18:59;;;;;;;4.90;3.20;;;;;;;35.45;49.86;100765.60;117281;1185;22919;-68
2021/09/15 11:21:31;;;;;;;;;;;;;;;35.39;49.69;100762.96;117338;1185;23550;-67
2021/09/15 11:24:13;;;;;;;5.40;3.70;;;;;;;35.25;49.27;100759.52;117187;1186;23550;-67
2021/09/15 11:26:58;;;;;;;6.50;3.40;;;;;;;35.05;49.31;100753.98;117366;1183;23573;-71
2021/09/15 11:29:42;;;;;;;8.20;3.20;;;;;;;34.81;49.48;100751.46;117087;1183;21861;-69
2021/09/15 11:32:14;;;;;;;7.10;3.00;;;;;;;34.62;49.54;100749.94;117342;1182;22811;-73
2021/09/15 11:34:51;;;;;;;7.40;3.40;;;;;;;34.57;49.67;100740.36;117366;1183;23455;-71
2021/09/15 11:37:26;;;;;;;5.40;3.10;;;;;;;34.64;49.89;100737.98;117324;1180;23560;-72